HLY402 KJFK-EDDF
Flight info
| Callsign | HLY402 |
|---|---|
| Flight time | N/A |
| Altitude | 35000 |
| Route | GREKI DCT JUDDS DCT MARTN DCT EBONY N567B TUDEP/M085F370 DCT 52N050W 54N040W 55N030W 55N020W DCT DOGAL DCT BEXET/N0485F370 DCT MORAG/N0479F390 DCT NUCHU L607 KONAN DCT KOK UL607 FERDI DCT REMBA DCT SPI T180 NIVNU T847 IMCOM IMCOM1D |
| Aircraft | A35K/H-SDE2E3GHIJ3J4J5LM1ORWXY/LB1D1 |
Departure
| Time | 2026-05-08 13:58 |
|---|---|
| Airport | John F. Kennedy International Airport (KJFK) |
Arrival
| Time | N/A |
|---|---|
| Airport | Frankfurt Main Airport (EDDF) |
| Time | Latitude | Longitude | Altitude | Speed | Heading |
|---|---|---|---|---|---|
| 2026-05-08 13:03 | 40.64075 | -73.78100 | 26 ft | 0 kts | 239° |
| 2026-05-08 13:48 | 40.64084 | -73.78080 | 28 ft | 4 kts | 239° |
| 2026-05-08 13:48 | 40.64097 | -73.78051 | 32 ft | 2 kts | 239° |
| 2026-05-08 13:49 | 40.64111 | -73.78027 | 32 ft | 4 kts | 201° |
| 2026-05-08 13:49 | 40.64131 | -73.78031 | 32 ft | 4 kts | 139° |
| 2026-05-08 13:49 | 40.64149 | -73.78050 | 32 ft | 1 kts | 151° |
| 2026-05-08 13:49 | 40.64150 | -73.78050 | 32 ft | 0 kts | 151° |
| 2026-05-08 13:51 | 40.64149 | -73.78050 | 32 ft | 0 kts | 151° |
| 2026-05-08 13:51 | 40.64141 | -73.78043 | 32 ft | 2 kts | 150° |
| 2026-05-08 13:52 | 40.64119 | -73.78027 | 32 ft | 5 kts | 150° |
| 2026-05-08 13:52 | 40.64084 | -73.78001 | 32 ft | 7 kts | 150° |
| 2026-05-08 13:52 | 40.64036 | -73.77967 | 28 ft | 9 kts | 154° |
| 2026-05-08 13:52 | 40.63970 | -73.77946 | 29 ft | 11 kts | 172° |
| 2026-05-08 13:53 | 40.63888 | -73.77932 | 30 ft | 13 kts | 173° |
| 2026-05-08 13:53 | 40.63793 | -73.77917 | 31 ft | 15 kts | 172° |
| 2026-05-08 13:53 | 40.63684 | -73.77898 | 30 ft | 17 kts | 172° |
| 2026-05-08 13:53 | 40.63570 | -73.77851 | 28 ft | 18 kts | 154° |
| 2026-05-08 13:54 | 40.63455 | -73.77869 | 26 ft | 18 kts | 211° |
| 2026-05-08 13:54 | 40.63349 | -73.77888 | 27 ft | 16 kts | 134° |
| 2026-05-08 13:54 | 40.63288 | -73.77764 | 30 ft | 16 kts | 122° |
| 2026-05-08 13:54 | 40.63225 | -73.77631 | 29 ft | 18 kts | 122° |
| 2026-05-08 13:55 | 40.63157 | -73.77476 | 28 ft | 21 kts | 118° |
| 2026-05-08 13:55 | 40.63083 | -73.77305 | 27 ft | 22 kts | 120° |
| 2026-05-08 13:55 | 40.62902 | -73.77115 | 27 ft | 16 kts | 209° |
| 2026-05-08 13:56 | 40.62830 | -73.77216 | 28 ft | 14 kts | 269° |
| 2026-05-08 13:56 | 40.62867 | -73.77326 | 29 ft | 13 kts | 301° |
| 2026-05-08 13:56 | 40.62873 | -73.77339 | 29 ft | 0 kts | 301° |
| 2026-05-08 13:57 | 40.62875 | -73.77342 | 29 ft | 4 kts | 301° |
| 2026-05-08 13:57 | 40.62982 | -73.77583 | 30 ft | 63 kts | 300° |
| 2026-05-08 13:57 | 40.63305 | -73.78301 | 27 ft | 121 kts | 300° |
| 2026-05-08 13:57 | 40.63820 | -73.79446 | 27 ft | 169 kts | 300° |
| 2026-05-08 13:58 | 40.64462 | -73.80791 | 625 ft | 170 kts | 301° |
| 2026-05-08 13:58 | 40.65062 | -73.82095 | 1452 ft | 167 kts | 301° |
| 2026-05-08 13:58 | 40.65704 | -73.83482 | 1799 ft | 189 kts | 303° |
| 2026-05-08 13:58 | 40.66717 | -73.84770 | 2061 ft | 218 kts | 323° |
| 2026-05-08 13:59 | 40.68067 | -73.85873 | 2449 ft | 237 kts | 330° |
| 2026-05-08 13:59 | 40.69691 | -73.86385 | 3151 ft | 248 kts | 359° |
| 2026-05-08 13:59 | 40.71406 | -73.86011 | 3936 ft | 252 kts | 11° |
| 2026-05-08 13:59 | 40.73088 | -73.85396 | 4747 ft | 252 kts | 12° |
| 2026-05-08 14:00 | 40.74773 | -73.84733 | 5467 ft | 254 kts | 12° |
| 2026-05-08 14:00 | 40.76491 | -73.84036 | 6168 ft | 259 kts | 12° |
| 2026-05-08 14:00 | 40.78207 | -73.83321 | 6968 ft | 260 kts | 13° |
| 2026-05-08 14:00 | 40.79888 | -73.82361 | 7691 ft | 267 kts | 20° |
| 2026-05-08 14:01 | 40.81570 | -73.81246 | 8404 ft | 273 kts | 21° |
| 2026-05-08 14:01 | 40.83258 | -73.80047 | 9133 ft | 279 kts | 22° |
| 2026-05-08 14:01 | 40.84968 | -73.78786 | 9868 ft | 284 kts | 22° |
| 2026-05-08 14:01 | 40.86722 | -73.77474 | 10371 ft | 297 kts | 22° |
| 2026-05-08 14:02 | 40.88574 | -73.76096 | 10672 ft | 316 kts | 22° |
| 2026-05-08 14:02 | 40.90549 | -73.74630 | 10977 ft | 335 kts | 23° |
| 2026-05-08 14:02 | 40.92613 | -73.73097 | 11270 ft | 352 kts | 23° |
| 2026-05-08 14:02 | 40.94795 | -73.71472 | 11593 ft | 368 kts | 23° |
| 2026-05-08 14:03 | 40.97064 | -73.69778 | 11973 ft | 380 kts | 24° |
| 2026-05-08 14:03 | 40.99390 | -73.68034 | 12547 ft | 387 kts | 24° |
| 2026-05-08 14:03 | 41.01750 | -73.66261 | 13159 ft | 393 kts | 24° |
| 2026-05-08 14:03 | 41.04138 | -73.64468 | 13806 ft | 397 kts | 23° |
| 2026-05-08 14:04 | 41.06557 | -73.62655 | 14336 ft | 403 kts | 23° |
| 2026-05-08 14:04 | 41.09012 | -73.60817 | 14883 ft | 408 kts | 23° |
| 2026-05-08 14:04 | 41.11490 | -73.58961 | 15439 ft | 412 kts | 22° |
| 2026-05-08 14:04 | 41.14005 | -73.57078 | 15990 ft | 417 kts | 22° |
| 2026-05-08 14:05 | 41.16539 | -73.55178 | 16532 ft | 421 kts | 22° |
| 2026-05-08 14:05 | 41.19108 | -73.53252 | 17084 ft | 426 kts | 22° |
| 2026-05-08 14:05 | 41.21703 | -73.51303 | 17694 ft | 431 kts | 22° |
| 2026-05-08 14:05 | 41.24327 | -73.49331 | 18246 ft | 436 kts | 22° |
| 2026-05-08 14:06 | 41.26986 | -73.47331 | 18747 ft | 441 kts | 22° |
| 2026-05-08 14:06 | 41.29663 | -73.45313 | 19304 ft | 444 kts | 21° |
| 2026-05-08 14:06 | 41.32363 | -73.43275 | 19876 ft | 447 kts | 21° |
| 2026-05-08 14:06 | 41.35077 | -73.41225 | 20399 ft | 451 kts | 21° |
| 2026-05-08 14:07 | 41.37816 | -73.39155 | 20960 ft | 455 kts | 21° |
| 2026-05-08 14:07 | 41.40577 | -73.37066 | 21525 ft | 459 kts | 21° |
| 2026-05-08 14:07 | 41.43368 | -73.34957 | 22014 ft | 464 kts | 21° |
| 2026-05-08 14:07 | 41.46174 | -73.32783 | 22543 ft | 471 kts | 24° |
| 2026-05-08 14:08 | 41.48832 | -73.30118 | 23081 ft | 484 kts | 33° |
| 2026-05-08 14:08 | 41.51355 | -73.27091 | 23614 ft | 492 kts | 36° |
| 2026-05-08 14:08 | 41.53759 | -73.23997 | 24036 ft | 497 kts | 37° |
| 2026-05-08 14:08 | 41.56221 | -73.20714 | 24453 ft | 501 kts | 38° |
| 2026-05-08 14:09 | 41.58789 | -73.17666 | 24873 ft | 497 kts | 29° |
| 2026-05-08 14:09 | 41.61650 | -73.15166 | 25301 ft | 488 kts | 19° |
| 2026-05-08 14:09 | 41.64730 | -73.13390 | 25722 ft | 477 kts | 8° |
| 2026-05-08 14:09 | 41.67923 | -73.12405 | 26157 ft | 465 kts | 357° |
| 2026-05-08 14:10 | 41.71106 | -73.12201 | 26604 ft | 453 kts | 347° |
| 2026-05-08 14:10 | 41.74235 | -73.12521 | 27053 ft | 451 kts | 344° |
| 2026-05-08 14:10 | 41.77343 | -73.13004 | 27538 ft | 451 kts | 343° |
| 2026-05-08 14:10 | 41.80463 | -73.13567 | 27848 ft | 456 kts | 342° |
| 2026-05-08 14:11 | 41.83552 | -73.14145 | 28244 ft | 458 kts | 342° |
| 2026-05-08 14:11 | 41.86702 | -73.14725 | 28678 ft | 461 kts | 342° |
| 2026-05-08 14:11 | 41.89891 | -73.15298 | 29075 ft | 463 kts | 342° |
| 2026-05-08 14:11 | 41.93086 | -73.15859 | 29470 ft | 466 kts | 342° |
| 2026-05-08 14:12 | 41.96279 | -73.16407 | 30020 ft | 464 kts | 342° |
| 2026-05-08 14:12 | 41.99477 | -73.16950 | 30481 ft | 463 kts | 342° |
| 2026-05-08 14:12 | 42.02691 | -73.17497 | 30705 ft | 467 kts | 343° |
| 2026-05-08 14:12 | 42.05910 | -73.18046 | 31056 ft | 466 kts | 343° |
| 2026-05-08 14:13 | 42.09124 | -73.18592 | 31475 ft | 465 kts | 343° |
| 2026-05-08 14:13 | 42.12332 | -73.19137 | 31850 ft | 464 kts | 343° |
| 2026-05-08 14:13 | 42.15539 | -73.19685 | 32205 ft | 464 kts | 343° |
| 2026-05-08 14:13 | 42.18736 | -73.20234 | 32554 ft | 464 kts | 343° |
| 2026-05-08 14:14 | 42.21943 | -73.20787 | 32823 ft | 465 kts | 343° |
| 2026-05-08 14:14 | 42.25147 | -73.21342 | 33151 ft | 464 kts | 343° |
| 2026-05-08 14:14 | 42.28354 | -73.21895 | 33450 ft | 464 kts | 343° |
| 2026-05-08 14:14 | 42.31561 | -73.22448 | 33740 ft | 465 kts | 343° |
| 2026-05-08 14:15 | 42.34762 | -73.22999 | 34046 ft | 464 kts | 343° |
| 2026-05-08 14:15 | 42.37971 | -73.23552 | 34271 ft | 465 kts | 343° |
| 2026-05-08 14:15 | 42.41188 | -73.24110 | 34434 ft | 468 kts | 344° |
| 2026-05-08 14:16 | 42.47722 | -73.25073 | 34695 ft | 479 kts | 350° |
| 2026-05-08 14:16 | 42.51080 | -73.24885 | 34895 ft | 489 kts | 359° |
| 2026-05-08 14:16 | 42.54458 | -73.23978 | 35070 ft | 501 kts | 8° |
| 2026-05-08 14:16 | 42.57754 | -73.22268 | 35234 ft | 514 kts | 19° |
| 2026-05-08 14:17 | 42.60849 | -73.19725 | 35447 ft | 526 kts | 31° |
| 2026-05-08 14:17 | 42.63606 | -73.16388 | 35584 ft | 537 kts | 42° |
| 2026-05-08 14:17 | 42.65901 | -73.12341 | 35727 ft | 547 kts | 54° |
| 2026-05-08 14:17 | 42.67621 | -73.07696 | 35869 ft | 554 kts | 66° |
| 2026-05-08 14:18 | 42.68893 | -73.02777 | 36025 ft | 553 kts | 64° |
| 2026-05-08 14:18 | 42.70533 | -72.98071 | 36233 ft | 549 kts | 58° |
| 2026-05-08 14:18 | 42.72310 | -72.93487 | 36379 ft | 548 kts | 58° |
| 2026-05-08 14:18 | 42.74117 | -72.88954 | 36602 ft | 547 kts | 58° |
| 2026-05-08 14:19 | 42.75951 | -72.84449 | 36867 ft | 545 kts | 57° |
| 2026-05-08 14:19 | 42.79680 | -72.75443 | 36931 ft | 549 kts | 57° |
| 2026-05-08 14:20 | 42.83446 | -72.66383 | 36922 ft | 552 kts | 57° |
| 2026-05-08 14:20 | 42.87216 | -72.57263 | 36918 ft | 551 kts | 57° |
| 2026-05-08 14:21 | 42.90968 | -72.48144 | 36918 ft | 550 kts | 58° |
| 2026-05-08 14:21 | 42.94702 | -72.39034 | 36916 ft | 550 kts | 58° |
| 2026-05-08 14:22 | 42.98429 | -72.29918 | 36915 ft | 550 kts | 58° |
| 2026-05-08 14:22 | 43.02147 | -72.20792 | 36948 ft | 550 kts | 58° |
| 2026-05-08 14:23 | 43.05836 | -72.11708 | 36905 ft | 550 kts | 58° |
| 2026-05-08 14:23 | 43.09560 | -72.02509 | 36903 ft | 549 kts | 58° |
| 2026-05-08 14:24 | 43.13229 | -71.93419 | 36901 ft | 549 kts | 58° |
| 2026-05-08 14:24 | 43.16916 | -71.84257 | 36902 ft | 549 kts | 59° |
| 2026-05-08 14:25 | 43.20590 | -71.75093 | 36896 ft | 548 kts | 59° |
| 2026-05-08 14:25 | 43.24254 | -71.65927 | 36895 ft | 548 kts | 59° |
| 2026-05-08 14:26 | 43.27913 | -71.56744 | 36899 ft | 548 kts | 59° |
| 2026-05-08 14:26 | 43.31566 | -71.47549 | 36896 ft | 549 kts | 59° |
| 2026-05-08 14:27 | 43.35209 | -71.38347 | 36893 ft | 549 kts | 59° |
| 2026-05-08 14:27 | 43.38851 | -71.29118 | 36882 ft | 549 kts | 59° |
| 2026-05-08 14:28 | 43.42483 | -71.19885 | 36890 ft | 549 kts | 59° |
| 2026-05-08 14:28 | 43.46102 | -71.10654 | 36874 ft | 547 kts | 59° |
| 2026-05-08 14:29 | 43.49704 | -71.01437 | 36873 ft | 547 kts | 59° |
| 2026-05-08 14:29 | 43.53301 | -70.92204 | 36873 ft | 547 kts | 60° |
| 2026-05-08 14:30 | 43.56887 | -70.82970 | 36886 ft | 547 kts | 60° |
| 2026-05-08 14:30 | 43.60462 | -70.73732 | 36867 ft | 545 kts | 60° |
| 2026-05-08 14:31 | 43.64021 | -70.64506 | 36870 ft | 544 kts | 60° |
| 2026-05-08 14:31 | 43.67572 | -70.55270 | 36864 ft | 544 kts | 60° |
| 2026-05-08 14:32 | 43.72875 | -70.41423 | 36859 ft | 543 kts | 60° |
| 2026-05-08 14:32 | 43.76399 | -70.32181 | 36859 ft | 543 kts | 60° |
| 2026-05-08 14:33 | 43.79910 | -70.22944 | 36866 ft | 543 kts | 60° |
| 2026-05-08 14:33 | 43.83422 | -70.13674 | 36876 ft | 544 kts | 61° |
| 2026-05-08 14:34 | 43.86933 | -70.04376 | 36866 ft | 545 kts | 61° |
| 2026-05-08 14:34 | 43.90439 | -69.95059 | 36871 ft | 545 kts | 61° |
| 2026-05-08 14:35 | 43.93350 | -69.87300 | 36871 ft | 545 kts | 61° |
| 2026-05-08 14:35 | 43.96844 | -69.77960 | 36875 ft | 545 kts | 62° |
| 2026-05-08 14:36 | 44.00330 | -69.68609 | 36872 ft | 545 kts | 62° |
| 2026-05-08 14:36 | 44.03811 | -69.59239 | 36864 ft | 546 kts | 62° |
| 2026-05-08 14:37 | 44.07293 | -69.49834 | 36854 ft | 548 kts | 62° |
| 2026-05-08 14:37 | 44.10752 | -69.40463 | 36843 ft | 547 kts | 62° |
| 2026-05-08 14:38 | 44.14217 | -69.31042 | 36839 ft | 546 kts | 62° |
| 2026-05-08 14:38 | 44.17669 | -69.21622 | 36839 ft | 546 kts | 62° |
| 2026-05-08 14:39 | 44.21117 | -69.12181 | 36837 ft | 546 kts | 62° |
| 2026-05-08 14:39 | 44.24554 | -69.02743 | 36846 ft | 547 kts | 63° |
| 2026-05-08 14:40 | 44.27989 | -68.93273 | 36825 ft | 547 kts | 63° |
| 2026-05-08 14:40 | 44.31418 | -68.83788 | 36839 ft | 547 kts | 63° |
| 2026-05-08 14:41 | 44.34833 | -68.74307 | 36830 ft | 547 kts | 63° |
| 2026-05-08 14:41 | 44.38247 | -68.64799 | 36821 ft | 546 kts | 63° |
| 2026-05-08 14:42 | 44.41648 | -68.55295 | 36820 ft | 546 kts | 63° |
| 2026-05-08 14:42 | 44.45039 | -68.45783 | 36816 ft | 547 kts | 63° |
| 2026-05-08 14:43 | 44.48433 | -68.36230 | 36834 ft | 548 kts | 64° |
| 2026-05-08 14:43 | 44.51793 | -68.26739 | 36812 ft | 547 kts | 64° |
| 2026-05-08 14:44 | 44.55185 | -68.17126 | 36826 ft | 547 kts | 64° |
| 2026-05-08 14:44 | 44.58525 | -68.07625 | 36798 ft | 547 kts | 64° |
| 2026-05-08 14:45 | 44.61880 | -67.98050 | 36803 ft | 547 kts | 64° |
| 2026-05-08 14:45 | 44.65227 | -67.88460 | 36792 ft | 548 kts | 64° |
| 2026-05-08 14:46 | 44.68572 | -67.78844 | 36792 ft | 548 kts | 64° |
| 2026-05-08 14:46 | 44.71912 | -67.69208 | 36790 ft | 548 kts | 64° |
| 2026-05-08 14:47 | 44.75241 | -67.59572 | 36790 ft | 547 kts | 64° |
| 2026-05-08 14:47 | 44.78553 | -67.49946 | 36787 ft | 546 kts | 65° |
| 2026-05-08 14:48 | 44.81857 | -67.40309 | 36761 ft | 546 kts | 65° |
| 2026-05-08 14:48 | 44.85152 | -67.30664 | 36788 ft | 547 kts | 65° |
| 2026-05-08 14:49 | 44.88442 | -67.21003 | 36790 ft | 547 kts | 65° |
| 2026-05-08 14:49 | 44.92454 | -67.11916 | 36792 ft | 547 kts | 53° |
| 2026-05-08 14:50 | 44.97154 | -67.03470 | 36789 ft | 547 kts | 51° |
| 2026-05-08 14:50 | 45.01952 | -66.95113 | 36782 ft | 548 kts | 51° |
| 2026-05-08 14:51 | 45.06750 | -66.86732 | 36779 ft | 548 kts | 51° |
| 2026-05-08 14:51 | 45.11523 | -66.78328 | 36763 ft | 548 kts | 51° |
| 2026-05-08 14:52 | 45.18662 | -66.65681 | 36748 ft | 549 kts | 52° |
| 2026-05-08 14:53 | 45.23431 | -66.57200 | 36749 ft | 550 kts | 52° |
| 2026-05-08 14:53 | 45.28201 | -66.48691 | 36745 ft | 551 kts | 52° |
| 2026-05-08 14:54 | 45.32964 | -66.40174 | 36742 ft | 551 kts | 52° |
| 2026-05-08 14:54 | 45.37722 | -66.31640 | 36736 ft | 551 kts | 52° |
| 2026-05-08 14:55 | 45.42473 | -66.23088 | 36736 ft | 551 kts | 52° |
| 2026-05-08 14:55 | 45.47188 | -66.14577 | 36740 ft | 551 kts | 53° |
| 2026-05-08 14:56 | 45.51926 | -66.05999 | 36735 ft | 551 kts | 53° |
| 2026-05-08 14:56 | 45.56655 | -65.97412 | 36732 ft | 551 kts | 53° |
| 2026-05-08 14:57 | 45.61383 | -65.88799 | 36730 ft | 551 kts | 53° |
| 2026-05-08 14:57 | 45.66106 | -65.80174 | 36720 ft | 552 kts | 53° |
| 2026-05-08 14:58 | 45.70830 | -65.71514 | 36720 ft | 553 kts | 53° |
| 2026-05-08 14:58 | 45.75552 | -65.62832 | 36719 ft | 553 kts | 53° |
| 2026-05-08 14:59 | 45.80265 | -65.54143 | 36718 ft | 553 kts | 54° |
| 2026-05-08 14:59 | 45.87326 | -65.41071 | 36711 ft | 552 kts | 54° |
| 2026-05-08 15:00 | 45.91995 | -65.32396 | 36719 ft | 553 kts | 54° |
| 2026-05-08 15:00 | 45.96686 | -65.23653 | 36711 ft | 552 kts | 54° |
| 2026-05-08 15:01 | 46.01368 | -65.14897 | 36708 ft | 552 kts | 54° |
| 2026-05-08 15:01 | 46.06043 | -65.06127 | 36704 ft | 552 kts | 54° |
| 2026-05-08 15:02 | 46.10710 | -64.97344 | 36702 ft | 552 kts | 54° |
| 2026-05-08 15:02 | 46.15370 | -64.88549 | 36701 ft | 552 kts | 54° |
| 2026-05-08 15:03 | 46.20019 | -64.79747 | 36702 ft | 552 kts | 55° |
| 2026-05-08 15:03 | 46.24665 | -64.70924 | 36704 ft | 552 kts | 55° |
| 2026-05-08 15:04 | 46.29308 | -64.62074 | 36701 ft | 552 kts | 55° |
| 2026-05-08 15:04 | 46.33941 | -64.53217 | 36700 ft | 552 kts | 55° |
| 2026-05-08 15:05 | 46.38568 | -64.44344 | 36700 ft | 552 kts | 56° |
| 2026-05-08 15:05 | 46.43187 | -64.35459 | 36708 ft | 552 kts | 56° |
| 2026-05-08 15:06 | 46.47807 | -64.26543 | 36708 ft | 553 kts | 56° |
| 2026-05-08 15:06 | 46.52418 | -64.17617 | 36708 ft | 553 kts | 56° |
| 2026-05-08 15:07 | 46.57020 | -64.08676 | 36708 ft | 553 kts | 56° |
| 2026-05-08 15:07 | 46.61630 | -63.99692 | 36710 ft | 555 kts | 56° |
| 2026-05-08 15:08 | 46.65460 | -63.92209 | 36708 ft | 555 kts | 56° |
| 2026-05-08 15:08 | 46.70838 | -63.81668 | 36708 ft | 555 kts | 57° |
| 2026-05-08 15:09 | 46.75432 | -63.72628 | 36708 ft | 555 kts | 57° |
| 2026-05-08 15:09 | 46.79993 | -63.63625 | 36711 ft | 555 kts | 57° |
| 2026-05-08 15:10 | 46.84572 | -63.54557 | 36710 ft | 555 kts | 57° |
| 2026-05-08 15:10 | 46.89149 | -63.45463 | 36712 ft | 556 kts | 57° |
| 2026-05-08 15:11 | 46.93722 | -63.36347 | 36717 ft | 556 kts | 57° |
| 2026-05-08 15:11 | 46.98284 | -63.27222 | 36716 ft | 555 kts | 58° |
| 2026-05-08 15:12 | 47.02840 | -63.18081 | 36716 ft | 556 kts | 58° |
| 2026-05-08 15:12 | 47.07406 | -63.08884 | 36716 ft | 558 kts | 58° |
| 2026-05-08 15:13 | 47.11971 | -62.99665 | 36723 ft | 558 kts | 58° |
| 2026-05-08 15:13 | 47.16530 | -62.90430 | 36722 ft | 559 kts | 59° |
| 2026-05-08 15:14 | 47.21087 | -62.81164 | 36724 ft | 559 kts | 59° |
| 2026-05-08 15:14 | 47.25631 | -62.71889 | 36720 ft | 559 kts | 59° |
| 2026-05-08 15:15 | 47.30173 | -62.62590 | 36726 ft | 559 kts | 59° |
| 2026-05-08 15:15 | 47.34706 | -62.53279 | 36722 ft | 559 kts | 59° |
| 2026-05-08 15:16 | 47.39203 | -62.44010 | 36719 ft | 559 kts | 59° |
| 2026-05-08 15:16 | 47.43721 | -62.34667 | 36718 ft | 559 kts | 59° |
| 2026-05-08 15:17 | 47.48232 | -62.25310 | 36697 ft | 559 kts | 60° |
| 2026-05-08 15:17 | 47.52745 | -62.15916 | 36710 ft | 560 kts | 60° |
| 2026-05-08 15:18 | 47.57242 | -62.06514 | 36730 ft | 560 kts | 60° |
| 2026-05-08 15:18 | 47.61738 | -61.97086 | 36730 ft | 560 kts | 60° |
| 2026-05-08 15:19 | 47.66222 | -61.87652 | 36694 ft | 560 kts | 60° |
| 2026-05-08 15:19 | 47.70700 | -61.78200 | 36714 ft | 560 kts | 60° |
| 2026-05-08 15:20 | 47.75166 | -61.68739 | 36715 ft | 559 kts | 60° |
| 2026-05-08 15:20 | 47.79628 | -61.59255 | 36693 ft | 560 kts | 60° |
| 2026-05-08 15:21 | 47.84080 | -61.49759 | 36717 ft | 560 kts | 60° |
| 2026-05-08 15:21 | 47.88527 | -61.40238 | 36705 ft | 560 kts | 61° |
| 2026-05-08 15:22 | 47.92967 | -61.30704 | 36660 ft | 560 kts | 61° |
| 2026-05-08 15:22 | 47.97413 | -61.21116 | 36716 ft | 563 kts | 62° |
| 2026-05-08 15:23 | 48.01862 | -61.11494 | 36721 ft | 564 kts | 62° |
| 2026-05-08 15:23 | 48.06307 | -61.01847 | 36721 ft | 564 kts | 62° |
| 2026-05-08 15:24 | 48.10748 | -60.92173 | 36722 ft | 564 kts | 62° |
| 2026-05-08 15:24 | 48.15185 | -60.82473 | 36721 ft | 564 kts | 62° |
| 2026-05-08 15:25 | 48.18861 | -60.74411 | 36719 ft | 564 kts | 62° |
| 2026-05-08 15:25 | 48.23282 | -60.64681 | 36716 ft | 565 kts | 63° |
| 2026-05-08 15:26 | 48.28422 | -60.53322 | 36716 ft | 566 kts | 63° |
| 2026-05-08 15:26 | 48.32840 | -60.43527 | 36713 ft | 566 kts | 63° |
| 2026-05-08 15:27 | 48.36532 | -60.35313 | 36714 ft | 566 kts | 63° |
| 2026-05-08 15:27 | 48.40941 | -60.25466 | 36704 ft | 568 kts | 63° |
| 2026-05-08 15:28 | 48.45327 | -60.15631 | 36700 ft | 571 kts | 63° |
| 2026-05-08 15:28 | 48.49746 | -60.05699 | 36719 ft | 570 kts | 63° |
| 2026-05-08 15:29 | 48.54158 | -59.95742 | 36702 ft | 570 kts | 63° |
| 2026-05-08 15:29 | 48.58558 | -59.85776 | 36710 ft | 570 kts | 64° |
| 2026-05-08 15:30 | 48.62950 | -59.75787 | 36707 ft | 570 kts | 64° |
| 2026-05-08 15:30 | 48.67329 | -59.65792 | 36704 ft | 571 kts | 64° |
| 2026-05-08 15:31 | 48.71705 | -59.55765 | 36700 ft | 571 kts | 64° |
| 2026-05-08 15:31 | 48.76077 | -59.45711 | 36707 ft | 571 kts | 64° |
| 2026-05-08 15:32 | 48.80436 | -59.35651 | 36693 ft | 571 kts | 64° |
| 2026-05-08 15:32 | 48.84777 | -59.25591 | 36650 ft | 571 kts | 64° |
| 2026-05-08 15:33 | 48.89129 | -59.15468 | 36706 ft | 573 kts | 64° |
| 2026-05-08 15:33 | 48.93472 | -59.05331 | 36703 ft | 573 kts | 64° |
| 2026-05-08 15:34 | 48.97808 | -58.95171 | 36705 ft | 573 kts | 64° |
| 2026-05-08 15:34 | 49.02112 | -58.85049 | 36703 ft | 573 kts | 64° |
| 2026-05-08 15:35 | 49.06429 | -58.74856 | 36702 ft | 572 kts | 64° |
| 2026-05-08 15:35 | 49.10734 | -58.64653 | 36702 ft | 572 kts | 64° |
| 2026-05-08 15:36 | 49.15037 | -58.54416 | 36700 ft | 572 kts | 64° |
| 2026-05-08 15:36 | 49.19325 | -58.44174 | 36700 ft | 572 kts | 64° |
| 2026-05-08 15:37 | 49.23607 | -58.33908 | 36699 ft | 572 kts | 65° |
| 2026-05-08 15:37 | 49.27878 | -58.23626 | 36699 ft | 572 kts | 64° |
| 2026-05-08 15:38 | 49.32138 | -58.13331 | 36685 ft | 572 kts | 64° |
| 2026-05-08 15:38 | 49.36391 | -58.03013 | 36686 ft | 572 kts | 64° |
| 2026-05-08 15:39 | 49.40630 | -57.92693 | 36684 ft | 571 kts | 64° |
| 2026-05-08 15:39 | 49.44859 | -57.82351 | 36686 ft | 572 kts | 65° |
| 2026-05-08 15:40 | 49.49081 | -57.71988 | 36688 ft | 572 kts | 65° |
| 2026-05-08 15:40 | 49.53293 | -57.61605 | 36682 ft | 572 kts | 65° |
| 2026-05-08 15:41 | 49.57495 | -57.51211 | 36682 ft | 573 kts | 65° |
| 2026-05-08 15:41 | 49.61698 | -57.40777 | 36681 ft | 573 kts | 65° |
| 2026-05-08 15:42 | 49.65892 | -57.30325 | 36670 ft | 573 kts | 65° |
| 2026-05-08 15:42 | 49.70075 | -57.19853 | 36665 ft | 573 kts | 65° |
| 2026-05-08 15:43 | 49.74251 | -57.09358 | 36602 ft | 573 kts | 65° |
| 2026-05-08 15:43 | 49.78415 | -56.98851 | 36671 ft | 573 kts | 65° |
| 2026-05-08 15:44 | 49.82568 | -56.88333 | 36674 ft | 573 kts | 65° |
| 2026-05-08 15:44 | 49.86716 | -56.77783 | 36673 ft | 572 kts | 65° |
| 2026-05-08 15:45 | 49.90819 | -56.67302 | 36680 ft | 572 kts | 65° |
| 2026-05-08 15:45 | 49.94938 | -56.56743 | 36678 ft | 572 kts | 65° |
| 2026-05-08 15:46 | 49.99049 | -56.46160 | 36663 ft | 572 kts | 65° |
| 2026-05-08 15:46 | 50.03146 | -56.35573 | 36682 ft | 570 kts | 65° |
| 2026-05-08 15:47 | 50.07221 | -56.24997 | 36686 ft | 570 kts | 65° |
| 2026-05-08 15:47 | 50.11290 | -56.14394 | 36685 ft | 570 kts | 65° |
| 2026-05-08 15:48 | 50.17370 | -55.98469 | 36679 ft | 568 kts | 65° |
| 2026-05-08 15:49 | 50.21399 | -55.87863 | 36673 ft | 569 kts | 66° |
| 2026-05-08 15:49 | 50.25426 | -55.77211 | 36686 ft | 570 kts | 66° |
| 2026-05-08 15:50 | 50.29446 | -55.66540 | 36685 ft | 570 kts | 66° |
| 2026-05-08 15:50 | 50.33461 | -55.55841 | 36682 ft | 570 kts | 66° |
| 2026-05-08 15:50 | 50.35437 | -55.50563 | 36807 ft | 569 kts | 66° |
| 2026-05-08 15:51 | 50.37426 | -55.45236 | 37102 ft | 566 kts | 66° |
| 2026-05-08 15:51 | 50.39410 | -55.39913 | 37356 ft | 564 kts | 66° |
| 2026-05-08 15:51 | 50.41386 | -55.34597 | 37524 ft | 564 kts | 66° |
| 2026-05-08 15:51 | 50.43356 | -55.29281 | 37687 ft | 564 kts | 65° |
| 2026-05-08 15:52 | 50.45322 | -55.23968 | 37851 ft | 563 kts | 65° |
| 2026-05-08 15:52 | 50.47287 | -55.18647 | 37995 ft | 563 kts | 65° |
| 2026-05-08 15:52 | 50.49250 | -55.13322 | 38139 ft | 563 kts | 65° |
| 2026-05-08 15:52 | 50.51209 | -55.07999 | 38273 ft | 563 kts | 65° |
| 2026-05-08 15:53 | 50.53165 | -55.02670 | 38401 ft | 563 kts | 65° |
| 2026-05-08 15:53 | 50.55120 | -54.97337 | 38528 ft | 562 kts | 65° |
| 2026-05-08 15:53 | 50.57067 | -54.92012 | 38654 ft | 561 kts | 65° |
| 2026-05-08 15:54 | 50.60962 | -54.81320 | 38691 ft | 565 kts | 65° |
| 2026-05-08 15:54 | 50.64872 | -54.70542 | 38692 ft | 567 kts | 65° |
| 2026-05-08 15:55 | 50.68777 | -54.59746 | 38690 ft | 566 kts | 65° |
| 2026-05-08 15:55 | 50.74607 | -54.43535 | 38694 ft | 566 kts | 65° |
| 2026-05-08 15:56 | 50.78475 | -54.32720 | 38700 ft | 565 kts | 66° |
| 2026-05-08 15:56 | 50.82332 | -54.21890 | 38701 ft | 565 kts | 66° |
| 2026-05-08 15:57 | 50.86178 | -54.11043 | 38694 ft | 565 kts | 66° |
| 2026-05-08 15:57 | 50.89987 | -54.00260 | 38701 ft | 564 kts | 66° |
| 2026-05-08 15:58 | 50.93801 | -53.89412 | 38692 ft | 564 kts | 66° |
| 2026-05-08 15:58 | 50.97607 | -53.78540 | 38700 ft | 564 kts | 66° |
| 2026-05-08 15:59 | 51.01402 | -53.67656 | 38702 ft | 563 kts | 66° |
| 2026-05-08 15:59 | 51.05180 | -53.56772 | 38647 ft | 562 kts | 66° |
| 2026-05-08 16:00 | 51.08941 | -53.45887 | 38719 ft | 562 kts | 66° |
| 2026-05-08 16:00 | 51.12698 | -53.34972 | 38702 ft | 562 kts | 66° |
| 2026-05-08 16:01 | 51.16435 | -53.24066 | 38705 ft | 561 kts | 66° |
| 2026-05-08 16:01 | 51.19859 | -53.12950 | 38707 ft | 556 kts | 72° |
| 2026-05-08 16:02 | 51.22828 | -53.01573 | 38710 ft | 555 kts | 73° |
| 2026-05-08 16:02 | 51.25802 | -52.90201 | 38699 ft | 556 kts | 73° |
| 2026-05-08 16:03 | 51.28845 | -52.78869 | 38708 ft | 555 kts | 72° |
| 2026-05-08 16:03 | 51.31909 | -52.67559 | 38715 ft | 554 kts | 72° |
| 2026-05-08 16:04 | 51.34962 | -52.56243 | 38715 ft | 554 kts | 72° |
| 2026-05-08 16:04 | 51.37979 | -52.44987 | 38689 ft | 553 kts | 72° |
| 2026-05-08 16:05 | 51.40996 | -52.33671 | 38721 ft | 551 kts | 72° |
| 2026-05-08 16:05 | 51.43988 | -52.22394 | 38722 ft | 550 kts | 72° |
| 2026-05-08 16:06 | 51.46966 | -52.11107 | 38724 ft | 550 kts | 72° |
| 2026-05-08 16:06 | 51.49933 | -51.99811 | 38725 ft | 549 kts | 72° |
| 2026-05-08 16:07 | 51.52887 | -51.88505 | 38727 ft | 549 kts | 72° |
| 2026-05-08 16:07 | 51.55828 | -51.77198 | 38732 ft | 548 kts | 72° |
| 2026-05-08 16:08 | 51.58757 | -51.65877 | 38732 ft | 548 kts | 72° |
| 2026-05-08 16:08 | 51.61677 | -51.54536 | 38734 ft | 548 kts | 72° |
| 2026-05-08 16:09 | 51.64110 | -51.45038 | 38737 ft | 547 kts | 72° |
| 2026-05-08 16:09 | 51.67466 | -51.31879 | 38747 ft | 547 kts | 72° |
| 2026-05-08 16:10 | 51.70340 | -51.20544 | 38756 ft | 547 kts | 72° |
| 2026-05-08 16:10 | 51.73206 | -51.09184 | 38757 ft | 546 kts | 72° |
| 2026-05-08 16:11 | 51.76058 | -50.97820 | 38768 ft | 547 kts | 72° |
| 2026-05-08 16:11 | 51.78905 | -50.86417 | 38773 ft | 548 kts | 72° |
| 2026-05-08 16:12 | 51.81742 | -50.75003 | 38774 ft | 548 kts | 72° |
| 2026-05-08 16:12 | 51.84567 | -50.63576 | 38778 ft | 547 kts | 72° |
| 2026-05-08 16:13 | 51.87381 | -50.52133 | 38785 ft | 547 kts | 72° |
| 2026-05-08 16:13 | 51.90184 | -50.40674 | 38787 ft | 547 kts | 72° |
| 2026-05-08 16:14 | 51.92973 | -50.29210 | 38785 ft | 547 kts | 71° |
| 2026-05-08 16:14 | 51.95746 | -50.17761 | 38791 ft | 545 kts | 72° |
| 2026-05-08 16:15 | 51.98501 | -50.06316 | 38801 ft | 544 kts | 72° |
| 2026-05-08 16:15 | 52.01258 | -49.94889 | 38801 ft | 544 kts | 71° |
| 2026-05-08 16:16 | 52.03635 | -49.85437 | 38804 ft | 544 kts | 70° |
| 2026-05-08 16:16 | 52.06518 | -49.74071 | 38804 ft | 544 kts | 70° |
| 2026-05-08 16:17 | 52.09375 | -49.62685 | 38804 ft | 544 kts | 71° |
| 2026-05-08 16:17 | 52.12204 | -49.51293 | 38823 ft | 543 kts | 71° |
| 2026-05-08 16:18 | 52.15016 | -49.39899 | 38824 ft | 542 kts | 71° |
| 2026-05-08 16:18 | 52.17815 | -49.28495 | 38826 ft | 542 kts | 71° |
| 2026-05-08 16:19 | 52.20605 | -49.17076 | 38832 ft | 541 kts | 71° |
| 2026-05-08 16:19 | 52.23370 | -49.05701 | 38838 ft | 539 kts | 70° |
| 2026-05-08 16:20 | 52.26119 | -48.94329 | 38847 ft | 539 kts | 70° |
| 2026-05-08 16:20 | 52.28857 | -48.82941 | 38847 ft | 539 kts | 70° |
| 2026-05-08 16:21 | 52.31581 | -48.71551 | 38859 ft | 539 kts | 71° |
| 2026-05-08 16:21 | 52.34279 | -48.60217 | 38858 ft | 538 kts | 70° |
| 2026-05-08 16:22 | 52.36982 | -48.48797 | 38870 ft | 538 kts | 70° |
| 2026-05-08 16:22 | 52.39676 | -48.37357 | 38862 ft | 538 kts | 70° |
| 2026-05-08 16:23 | 52.42359 | -48.25902 | 38880 ft | 538 kts | 71° |
| 2026-05-08 16:23 | 52.45027 | -48.14451 | 38887 ft | 538 kts | 70° |
| 2026-05-08 16:24 | 52.47681 | -48.03000 | 38871 ft | 536 kts | 70° |
| 2026-05-08 16:24 | 52.50283 | -47.91714 | 38893 ft | 533 kts | 71° |
| 2026-05-08 16:25 | 52.52856 | -47.80489 | 38908 ft | 533 kts | 71° |
| 2026-05-08 16:25 | 52.55442 | -47.69144 | 38909 ft | 532 kts | 70° |
| 2026-05-08 16:26 | 52.58024 | -47.57763 | 38917 ft | 532 kts | 71° |
| 2026-05-08 16:26 | 52.60595 | -47.46369 | 38917 ft | 532 kts | 71° |
| 2026-05-08 16:27 | 52.63156 | -47.34952 | 38936 ft | 532 kts | 71° |
| 2026-05-08 16:27 | 52.65690 | -47.23601 | 38936 ft | 532 kts | 71° |
| 2026-05-08 16:28 | 52.68228 | -47.12158 | 38941 ft | 531 kts | 70° |
| 2026-05-08 16:28 | 52.70754 | -47.00715 | 38950 ft | 531 kts | 70° |
| 2026-05-08 16:29 | 52.73271 | -46.89252 | 38949 ft | 531 kts | 70° |